createdAt,value
2018-11-28T00:00:47.036Z,13.40
2018-11-28T00:03:56.423Z,19.33
2018-11-28T00:07:05.871Z,17.67
2018-11-28T00:10:15.440Z,18.73
2018-11-28T00:13:24.489Z,16.57
2018-11-28T00:16:33.779Z,21.40
2018-11-28T00:19:42.967Z,19.10
2018-11-28T00:22:52.165Z,21.93
2018-11-28T00:26:01.595Z,18.50
2018-11-28T00:29:10.862Z,17.43
2018-11-28T00:32:20.250Z,17.13
2018-11-28T00:35:29.592Z,14.23
2018-11-28T00:38:38.743Z,16.27
2018-11-28T00:41:47.982Z,20.40
2018-11-28T00:44:57.626Z,21.80
2018-11-28T00:48:06.761Z,21.63
2018-11-28T00:51:16.117Z,21.00
2018-11-28T00:54:25.389Z,20.20
2018-11-28T00:57:34.826Z,18.93
2018-11-28T01:00:43.979Z,18.03
2018-11-28T01:03:53.196Z,20.13
2018-11-28T01:07:02.553Z,20.60
2018-11-28T01:10:13.851Z,21.07
2018-11-28T01:13:23.133Z,22.50
2018-11-28T01:16:32.552Z,19.60
2018-11-28T01:19:41.782Z,20.70
2018-11-28T01:22:50.976Z,20.00
2018-11-28T01:26:00.342Z,20.47
2018-11-28T01:29:09.506Z,19.87
2018-11-28T01:32:18.874Z,21.83
2018-11-28T01:35:28.085Z,21.10
2018-11-28T01:38:37.399Z,22.10
2018-11-28T01:41:46.626Z,20.87
2018-11-28T01:44:55.863Z,21.03
2018-11-28T01:48:05.211Z,21.30
2018-11-28T01:51:14.415Z,21.60
2018-11-28T01:54:23.566Z,25.07
2018-11-28T01:57:37.591Z,23.97
2018-11-28T02:00:48.580Z,23.63
2018-11-28T02:03:59.325Z,25.33
2018-11-28T02:07:09.813Z,24.53
2018-11-28T02:10:19.388Z,25.67
2018-11-28T02:13:30.489Z,23.30
2018-11-28T02:16:39.730Z,24.77
2018-11-28T02:19:49.058Z,27.73
2018-11-28T02:22:58.465Z,23.43
2018-11-28T02:26:07.598Z,25.63
2018-11-28T02:29:17.031Z,28.07
2018-11-28T02:32:26.341Z,22.63
2018-11-28T02:35:35.717Z,23.03
2018-11-28T02:38:44.964Z,25.07
2018-11-28T02:41:54.394Z,23.47
2018-11-28T02:45:04.901Z,24.60
2018-11-28T02:48:13.999Z,25.27
2018-11-28T02:51:23.205Z,24.90
2018-11-28T02:54:32.378Z,23.40
2018-11-28T02:57:42.640Z,24.03
2018-11-28T03:00:52.056Z,25.70
2018-11-28T03:04:01.434Z,26.60
2018-11-28T03:07:10.674Z,26.47
2018-11-28T03:10:22.016Z,28.33
2018-11-28T03:13:31.218Z,23.27
2018-11-28T03:16:40.330Z,24.77
2018-11-28T03:19:49.688Z,25.23
2018-11-28T03:22:58.889Z,24.17
2018-11-28T03:26:08.269Z,25.27
2018-11-28T03:29:17.453Z,27.23
2018-11-28T03:32:26.722Z,26.53
2018-11-28T03:35:36.029Z,24.60
2018-11-28T03:38:45.236Z,27.13
2018-11-28T03:41:54.673Z,25.63
2018-11-28T03:45:05.702Z,25.73
2018-11-28T03:48:19.133Z,25.30
2018-11-28T03:51:28.389Z,26.80
2018-11-28T03:54:37.776Z,25.67
2018-11-28T03:57:47.722Z,27.43
2018-11-28T04:00:57.018Z,29.77
2018-11-28T04:04:06.442Z,28.07
2018-11-28T04:07:15.799Z,28.70
2018-11-28T04:10:24.985Z,25.47
2018-11-28T04:13:34.170Z,26.70
2018-11-28T04:16:43.388Z,29.50
2018-11-28T04:19:52.688Z,32.53
2018-11-28T04:23:01.928Z,30.03
2018-11-28T04:26:11.297Z,31.57
2018-11-28T04:29:20.495Z,29.87
2018-11-28T04:32:29.734Z,33.20
2018-11-28T04:35:38.852Z,34.83
2018-11-28T04:38:48.442Z,40.70
2018-11-28T04:41:57.615Z,47.53
2018-11-28T04:45:08.800Z,47.40
2018-11-28T04:48:18.077Z,54.93
2018-11-28T04:51:27.301Z,58.03
2018-11-28T04:54:36.572Z,56.00
2018-11-28T04:57:46.037Z,63.43
2018-11-28T05:00:55.340Z,68.57
2018-11-28T05:04:04.781Z,67.63
2018-11-28T05:07:24.087Z,68.53
2018-11-28T05:10:33.469Z,68.23
2018-11-28T05:13:42.592Z,66.13
2018-11-28T05:16:51.994Z,66.53
2018-11-28T05:20:01.188Z,69.30
2018-11-28T05:23:10.471Z,67.17
2018-11-28T05:26:19.654Z,69.47
2018-11-28T05:29:28.993Z,70.27
2018-11-28T05:32:38.396Z,64.23
2018-11-28T05:35:47.800Z,67.63
2018-11-28T05:38:57.042Z,71.40
2018-11-28T05:42:06.384Z,63.07
2018-11-28T05:45:15.840Z,64.03
2018-11-28T05:48:25.165Z,67.87
2018-11-28T05:51:34.520Z,61.03
2018-11-28T05:54:43.780Z,60.00
2018-11-28T05:57:53.108Z,66.83
2018-11-28T06:01:02.325Z,64.40
2018-11-28T06:04:11.840Z,63.53
2018-11-28T06:07:21.116Z,65.10
2018-11-28T06:10:30.254Z,63.60
2018-11-28T06:13:39.699Z,65.27
2018-11-28T06:16:49.056Z,67.17
2018-11-28T06:19:58.395Z,66.90
2018-11-28T06:23:07.795Z,71.23
2018-11-28T06:26:16.999Z,70.40
2018-11-28T06:29:26.412Z,78.03
2018-11-28T06:32:35.550Z,76.70
2018-11-28T06:35:44.977Z,73.80
2018-11-28T06:38:54.369Z,74.97
2018-11-28T06:42:03.552Z,69.53
2018-11-28T06:45:16.111Z,84.73
2018-11-28T06:48:25.499Z,76.93
2018-11-28T06:51:34.712Z,82.10
2018-11-28T06:54:43.849Z,72.37
2018-11-28T06:57:53.077Z,71.13
2018-11-28T07:01:02.398Z,74.50
2018-11-28T07:04:11.846Z,66.70
2018-11-28T07:07:21.199Z,68.60
2018-11-28T07:10:30.387Z,74.80
2018-11-28T07:13:39.599Z,63.60
2018-11-28T07:16:48.809Z,63.67
2018-11-28T07:19:58.114Z,58.23
2018-11-28T07:23:07.457Z,57.43
2018-11-28T07:26:16.592Z,53.60
2018-11-28T07:29:25.788Z,49.90
2018-11-28T07:32:35.133Z,47.97
2018-11-28T07:35:44.724Z,45.90
2018-11-28T07:38:54.219Z,43.70
2018-11-28T07:42:03.216Z,50.43
2018-11-28T07:45:12.675Z,50.17
2018-11-28T07:48:21.921Z,45.70
2018-11-28T07:51:31.097Z,43.90
2018-11-28T07:54:40.268Z,52.47
2018-11-28T07:57:49.666Z,47.90
2018-11-28T08:00:58.900Z,43.13
2018-11-28T08:04:08.156Z,42.40
2018-11-28T08:07:17.675Z,38.27
2018-11-28T08:10:27.145Z,36.57
2018-11-28T08:13:36.502Z,40.83
2018-11-28T08:16:45.808Z,34.47
2018-11-28T08:19:54.969Z,33.37
2018-11-28T08:23:04.672Z,31.23
2018-11-28T08:26:13.847Z,31.73
2018-11-28T08:29:23.141Z,32.00
2018-11-28T08:32:32.467Z,31.70
2018-11-28T08:35:41.644Z,30.67
2018-11-28T08:38:50.835Z,31.60
2018-11-28T08:42:00.152Z,27.40
2018-11-28T08:45:12.269Z,30.43
2018-11-28T08:48:21.465Z,29.93
2018-11-28T08:51:30.742Z,30.53
2018-11-28T08:54:40.114Z,30.83
2018-11-28T08:57:49.409Z,27.40
2018-11-28T09:00:58.619Z,22.30
2018-11-28T09:04:07.995Z,27.63
2018-11-28T09:07:17.309Z,25.27
2018-11-28T09:10:26.515Z,26.23
2018-11-28T09:13:35.889Z,27.30
2018-11-28T09:16:45.104Z,27.27
2018-11-28T09:19:54.424Z,25.47
2018-11-28T09:23:03.852Z,21.93
2018-11-28T09:26:18.520Z,31.17
2018-11-28T09:29:27.936Z,19.93
2018-11-28T09:32:37.487Z,21.63
2018-11-28T09:35:46.875Z,22.30
2018-11-28T09:38:56.035Z,22.20
2018-11-28T09:42:05.644Z,18.13
2018-11-28T09:45:15.580Z,19.13
2018-11-28T09:48:24.731Z,20.90
2018-11-28T09:51:34.035Z,19.60
2018-11-28T09:54:43.449Z,18.33
2018-11-28T09:57:52.831Z,20.13
2018-11-28T10:01:02.123Z,17.90
2018-11-28T10:04:11.461Z,19.07
2018-11-28T10:07:20.680Z,21.17
2018-11-28T10:10:29.975Z,17.67
2018-11-28T10:13:39.282Z,21.30
2018-11-28T10:16:48.870Z,15.83
2018-11-28T10:19:57.758Z,15.60
2018-11-28T10:23:07.120Z,18.23
2018-11-28T10:26:16.331Z,18.40
2018-11-28T10:29:25.619Z,19.67
2018-11-28T10:32:34.921Z,14.87
2018-11-28T10:35:44.057Z,16.57
2018-11-28T10:38:53.372Z,15.57
2018-11-28T10:42:02.614Z,11.77
2018-11-28T10:45:13.288Z,12.73
2018-11-28T10:48:22.613Z,11.93
2018-11-28T10:51:31.839Z,14.40
2018-11-28T10:54:41.084Z,15.07
2018-11-28T10:57:50.456Z,14.17
2018-11-28T11:01:05.244Z,10.37
2018-11-28T11:04:15.116Z,12.10
2018-11-28T11:07:29.632Z,11.73
2018-11-28T11:10:44.405Z,11.57
2018-11-28T11:13:59.197Z,12.53
2018-11-28T11:17:08.566Z,13.53
2018-11-28T11:20:17.745Z,10.40
2018-11-28T11:23:27.041Z,12.40
2018-11-28T11:26:36.432Z,11.13
2018-11-28T11:29:45.767Z,11.17
2018-11-28T11:32:55.146Z,10.07
2018-11-28T11:36:04.282Z,9.53
2018-11-28T11:39:13.495Z,11.50
2018-11-28T11:42:22.956Z,12.03
2018-11-28T11:45:32.203Z,12.20
2018-11-28T11:48:41.399Z,11.03
2018-11-28T11:51:50.591Z,11.97
2018-11-28T11:55:00.029Z,13.30
2018-11-28T11:58:09.095Z,9.77
2018-11-28T12:01:18.341Z,9.73
2018-11-28T12:04:27.714Z,9.47
2018-11-28T12:07:36.849Z,11.83
2018-11-28T12:10:46.542Z,13.17
2018-11-28T12:13:55.798Z,9.37
2018-11-28T12:17:06.024Z,13.87
2018-11-28T12:20:31.226Z,10.03
2018-11-28T12:23:40.528Z,12.27
2018-11-28T12:26:49.752Z,11.53
2018-11-28T12:29:59.103Z,9.87
2018-11-28T12:33:08.532Z,10.50
2018-11-28T12:36:17.839Z,10.37
2018-11-28T12:39:27.254Z,12.33
2018-11-28T12:42:36.620Z,11.13
2018-11-28T12:45:47.258Z,9.50
2018-11-28T12:48:56.524Z,14.47
2018-11-28T12:52:05.654Z,12.30
2018-11-28T12:55:14.888Z,14.40
2018-11-28T12:58:24.192Z,14.87
2018-11-28T13:01:33.443Z,11.70
2018-11-28T13:04:42.673Z,12.03
2018-11-28T13:07:52.027Z,11.77
2018-11-28T13:11:01.235Z,12.20
2018-11-28T13:14:10.352Z,12.53
2018-11-28T13:17:19.725Z,10.90
2018-11-28T13:20:28.964Z,12.67
2018-11-28T13:23:38.217Z,11.17
2018-11-28T13:26:47.524Z,11.53
2018-11-28T13:29:57.408Z,9.63
2018-11-28T13:33:07.703Z,12.67
2018-11-28T13:36:23.708Z,11.40
2018-11-28T13:39:32.829Z,10.13
2018-11-28T13:42:42.213Z,10.77
2018-11-28T13:45:51.608Z,11.27
2018-11-28T13:49:01.008Z,14.67
2018-11-28T13:52:10.204Z,9.47
2018-11-28T13:55:42.163Z,9.47
2018-11-28T13:58:35.569Z,10.40
2018-11-28T14:01:44.921Z,9.80
2018-11-28T14:04:54.282Z,11.00
2018-11-28T14:08:03.542Z,11.53
2018-11-28T14:11:12.655Z,10.27
2018-11-28T14:14:22.017Z,10.60
2018-11-28T14:17:31.284Z,10.77
2018-11-28T14:20:40.684Z,8.63
2018-11-28T14:23:49.971Z,8.67
2018-11-28T14:26:59.282Z,13.30
2018-11-28T14:30:10.914Z,11.43
2018-11-28T14:33:20.128Z,11.60
2018-11-28T14:36:29.388Z,11.67
2018-11-28T14:39:38.799Z,12.07
2018-11-28T14:42:50.415Z,8.97
2018-11-28T14:45:59.624Z,11.17
2018-11-28T14:49:08.848Z,11.77
2018-11-28T14:52:18.242Z,11.30
2018-11-28T14:55:29.529Z,10.47
2018-11-28T14:58:38.726Z,13.07
2018-11-28T15:01:48.953Z,12.00
2018-11-28T15:04:57.429Z,12.77
2018-11-28T15:08:10.113Z,11.40
2018-11-28T15:11:19.202Z,15.60
2018-11-28T15:14:28.397Z,12.47
2018-11-28T15:17:37.742Z,12.50
2018-11-28T15:20:46.993Z,15.17
2018-11-28T15:23:56.306Z,10.93
2018-11-28T15:27:05.959Z,14.93
2018-11-28T15:30:15.155Z,12.30
2018-11-28T15:33:24.555Z,12.40
2018-11-28T15:36:33.845Z,13.67
2018-11-28T15:39:43.153Z,11.83
2018-11-28T15:42:52.467Z,14.43
2018-11-28T15:46:01.718Z,10.90
2018-11-28T15:49:10.966Z,11.53
2018-11-28T15:52:20.171Z,11.77
2018-11-28T15:55:29.502Z,13.07
2018-11-28T15:58:38.696Z,13.30
2018-11-28T16:01:48.154Z,11.40
2018-11-28T16:04:57.473Z,14.07
2018-11-28T16:08:06.916Z,10.63
2018-11-28T16:11:17.543Z,11.60
2018-11-28T16:14:26.641Z,14.07
2018-11-28T16:17:35.821Z,12.73
2018-11-28T16:20:45.167Z,14.43
2018-11-28T16:23:54.411Z,12.27
2018-11-28T16:27:03.588Z,11.27
2018-11-28T16:30:13.802Z,11.83
2018-11-28T16:33:23.089Z,13.50
2018-11-28T16:36:32.204Z,14.57
2018-11-28T16:39:41.345Z,14.60
2018-11-28T16:42:50.633Z,11.63
2018-11-28T16:45:59.896Z,12.13
2018-11-28T16:49:09.234Z,14.00
2018-11-28T16:52:18.346Z,12.63
2018-11-28T16:55:27.688Z,11.33
2018-11-28T16:58:36.933Z,18.07
2018-11-28T17:01:46.062Z,14.97
2018-11-28T17:04:55.375Z,12.83
2018-11-28T17:08:04.610Z,14.30
2018-11-28T17:11:13.802Z,11.87
2018-11-28T17:14:23.196Z,12.17
2018-11-28T17:17:32.514Z,12.00
2018-11-28T17:20:42.570Z,14.23
2018-11-28T17:23:51.813Z,13.10
2018-11-28T17:27:00.999Z,15.67
2018-11-28T17:30:11.699Z,16.80
2018-11-28T17:33:20.993Z,13.53
2018-11-28T17:36:30.360Z,15.53
2018-11-28T17:39:39.667Z,14.87
2018-11-28T17:42:50.235Z,15.03
2018-11-28T17:45:59.432Z,17.00
2018-11-28T17:49:08.786Z,16.27
2018-11-28T17:52:18.025Z,19.47
2018-11-28T17:55:28.410Z,17.93
2018-11-28T17:58:37.677Z,13.50
2018-11-28T18:01:47.041Z,15.97
2018-11-28T18:04:56.186Z,16.40
2018-11-28T18:08:05.525Z,15.50
2018-11-28T18:11:15.405Z,16.77
2018-11-28T18:14:24.670Z,16.30
2018-11-28T18:17:33.985Z,19.63
2018-11-28T18:20:43.122Z,15.23
2018-11-28T18:23:52.862Z,17.00
2018-11-28T18:27:02.080Z,16.83
2018-11-28T18:30:12.172Z,14.40
2018-11-28T18:33:21.258Z,14.27
2018-11-28T18:36:30.573Z,15.67
2018-11-28T18:39:39.872Z,19.17
2018-11-28T18:42:49.120Z,20.27
2018-11-28T18:45:58.823Z,17.20
2018-11-28T18:49:07.681Z,18.40
2018-11-28T18:52:16.876Z,18.93
2018-11-28T18:55:26.186Z,19.10
2018-11-28T18:58:35.311Z,20.23
2018-11-28T19:01:48.408Z,19.53
2018-11-28T19:04:53.951Z,21.20
2018-11-28T19:08:03.234Z,22.07
2018-11-28T19:11:12.464Z,18.57
2018-11-28T19:14:22.224Z,23.80
2018-11-28T19:17:31.456Z,20.30
2018-11-28T19:20:40.666Z,23.53
2018-11-28T19:23:50.146Z,23.87
2018-11-28T19:26:59.460Z,23.93
2018-11-28T19:30:13.254Z,24.77
2018-11-28T19:33:22.538Z,27.03
2018-11-28T19:36:31.889Z,24.00
2018-11-28T19:39:41.132Z,26.27
2018-11-28T19:42:50.444Z,27.67
2018-11-28T19:45:59.693Z,29.07
2018-11-28T19:49:09.132Z,27.33
2018-11-28T19:52:18.548Z,31.30
2018-11-28T19:55:27.922Z,32.43
2018-11-28T19:58:37.166Z,35.00
2018-11-28T20:01:46.328Z,32.30
2018-11-28T20:04:55.415Z,32.53
2018-11-28T20:08:04.652Z,36.00
2018-11-28T20:11:13.861Z,34.73
2018-11-28T20:14:23.172Z,30.90
2018-11-28T20:17:32.713Z,32.27
2018-11-28T20:20:42.028Z,38.83
2018-11-28T20:23:51.214Z,38.53
2018-11-28T20:27:00.565Z,38.27
2018-11-28T20:30:12.427Z,40.13
2018-11-28T20:33:21.772Z,39.43
2018-11-28T20:36:31.169Z,37.07
2018-11-28T20:39:40.557Z,40.17
2018-11-28T20:42:51.189Z,45.00
2018-11-28T20:46:00.262Z,44.40
2018-11-28T20:49:09.543Z,46.53
2018-11-28T20:52:19.637Z,45.67
2018-11-28T20:55:28.934Z,45.23
2018-11-28T20:58:38.138Z,45.40
2018-11-28T21:01:47.605Z,48.27
2018-11-28T21:04:56.741Z,54.03
2018-11-28T21:08:07.666Z,54.57
2018-11-28T21:11:16.906Z,49.47
2018-11-28T21:14:26.317Z,50.70
2018-11-28T21:17:35.457Z,53.97
2018-11-28T21:20:45.735Z,47.37
2018-11-28T21:23:54.809Z,52.03
2018-11-28T21:27:04.077Z,52.00
2018-11-28T21:30:16.301Z,54.53
2018-11-28T21:33:25.574Z,51.70
2018-11-28T21:36:34.812Z,52.50
2018-11-28T21:39:52.701Z,52.43
2018-11-28T21:43:01.939Z,50.13
2018-11-28T21:46:11.275Z,52.50
2018-11-28T21:49:20.651Z,50.40
2018-11-28T21:52:29.996Z,53.47
2018-11-28T21:55:39.496Z,48.90
2018-11-28T21:58:48.618Z,48.73
2018-11-28T22:01:57.761Z,48.00
2018-11-28T22:05:08.404Z,52.50
2018-11-28T22:08:17.688Z,50.10
2018-11-28T22:11:26.958Z,51.37
2018-11-28T22:14:36.302Z,49.57
2018-11-28T22:17:47.065Z,52.77
2018-11-28T22:20:56.320Z,45.47
2018-11-28T22:24:05.993Z,46.37
2018-11-28T22:27:15.368Z,50.43
2018-11-28T22:30:27.825Z,50.97
2018-11-28T22:33:37.035Z,52.23
2018-11-28T22:36:46.457Z,47.37
2018-11-28T22:39:55.757Z,51.87
2018-11-28T22:43:05.191Z,53.47
2018-11-28T22:46:14.363Z,54.57
2018-11-28T22:49:23.514Z,53.53
2018-11-28T22:52:32.932Z,54.27
2018-11-28T22:55:42.241Z,52.57
2018-11-28T22:58:51.365Z,58.03
2018-11-28T23:03:06.600Z,54.50
2018-11-28T23:06:15.720Z,55.07
2018-11-28T23:09:24.822Z,54.70
2018-11-28T23:12:34.826Z,61.17
2018-11-28T23:15:44.137Z,56.13
2018-11-28T23:18:53.568Z,53.67
2018-11-28T23:22:02.699Z,55.80
2018-11-28T23:25:12.203Z,57.67
2018-11-28T23:28:21.549Z,62.17
2018-11-28T23:31:30.909Z,55.67
2018-11-28T23:34:40.144Z,57.63
2018-11-28T23:37:49.804Z,54.10
2018-11-28T23:40:59.107Z,59.73
2018-11-28T23:44:08.273Z,57.67
2018-11-28T23:47:17.656Z,61.77
2018-11-28T23:50:27.056Z,61.70
2018-11-28T23:53:36.260Z,60.33
2018-11-28T23:56:45.507Z,61.13
2018-11-28T23:59:54.865Z,65.43
